Time;durP1;ratioP1;P1;durP2;ratioP2;P2;SDS_P1;SDS_P2;PMS_P1;PMS_P2;Temp;Humidity;BMP_temperature;BMP_pressure;BME280_temperature;BME280_humidity;BME280_pressure;Samples;Min_cycle;Max_cycle;Signal;HPM_P1;HPM_P2
2022/05/18 00:01:59;;;;;;;;;7.25;7.25;;;;;22.82;61.27;101166.22;5073092;27;47878;-82
2022/05/18 00:04:25;;;;;;;;;8.00;8.00;;;;;23.06;62.21;101225.00;5073176;27;46036;-82
2022/05/18 00:06:51;;;;;;;;;7.25;6.25;;;;;22.92;62.12;101202.78;5092405;27;45588;-81
2022/05/18 00:09:17;;;;;;;;;8.25;8.00;;;;;22.99;62.68;101214.31;5091348;27;45438;-82
2022/05/18 00:11:42;;;;;;;;;6.75;6.50;;;;;22.74;62.77;101173.41;5088037;27;46276;-82
2022/05/18 00:14:08;;;;;;;;;6.00;5.50;;;;;22.99;63.08;101225.94;5113234;27;45410;-81
2022/05/18 00:16:33;;;;;;;;;8.25;8.00;;;;;23.01;63.21;101245.59;5126256;27;45862;-82
2022/05/18 00:18:59;;;;;;;;;7.00;7.00;;;;;22.76;62.89;101222.53;5127986;27;45052;-82
2022/05/18 00:21:25;;;;;;;;;7.00;7.00;;;;;22.58;63.45;101211.06;5118550;27;45701;-82
2022/05/18 00:23:50;;;;;;;;;7.75;7.00;;;;;22.71;63.78;101235.06;5109359;27;45190;-83
2022/05/18 00:26:16;;;;;;;;;9.00;9.00;;;;;22.42;64.16;101198.69;5110752;27;45646;-82
2022/05/18 00:28:41;;;;;;;;;8.00;8.00;;;;;22.72;63.79;101250.28;5110353;27;45103;-82
2022/05/18 00:31:06;;;;;;;;;8.00;7.00;;;;;22.49;64.21;101224.50;5110634;27;45763;-81
2022/05/18 00:33:32;;;;;;;;;9.00;9.00;;;;;22.67;64.40;101253.88;5130969;27;45118;-82
2022/05/18 00:35:57;;;;;;;;;8.25;8.00;;;;;22.35;63.34;101211.22;5131260;27;45074;-82
2022/05/18 00:38:23;;;;;;;;;9.00;8.00;;;;;22.37;63.44;101200.50;5131123;27;45549;-82
2022/05/18 00:40:51;;;;;;;;;7.00;7.00;;;;;22.75;62.39;101266.31;5131352;27;46130;-82
2022/05/18 00:43:35;;;;;;;;;6.00;6.00;;;;;22.50;61.65;101217.38;5111966;27;45177;-82
2022/05/18 00:46:04;;;;;;;;;6.00;6.00;;;;;22.67;62.24;101248.50;5111771;27;45417;-81
2022/05/18 00:48:30;;;;;;;;;7.00;7.00;;;;;22.52;62.51;101228.97;5130631;27;45408;-82
2022/05/18 00:50:58;;;;;;;;;7.00;7.00;;;;;22.48;62.63;101228.09;5131004;27;45333;-82
2022/05/18 00:53:36;;;;;;;;;6.00;6.00;;;;;22.54;62.54;101246.81;5130189;27;45623;-82
2022/05/18 00:56:10;;;;;;;;;6.00;6.00;;;;;22.54;62.48;101257.53;5131032;27;45083;-82
2022/05/18 00:58:43;;;;;;;;;8.00;7.00;;;;;22.31;62.64;101214.78;5129041;27;45232;-82
2022/05/18 01:01:10;;;;;;;;;7.00;6.50;;;;;22.28;62.59;101217.50;5110451;27;47452;-82
2022/05/18 01:03:40;;;;;;;;;6.75;6.50;;;;;22.53;62.59;101271.81;5115496;27;45355;-82
2022/05/18 01:06:12;;;;;;;;;7.75;7.75;;;;;22.60;62.19;101284.25;5109683;27;45087;-82
2022/05/18 01:09:28;;;;;;;;;8.25;6.75;;;;;22.55;62.14;101275.38;5108182;27;45098;-82
2022/05/18 01:11:53;;;;;;;;;7.25;7.25;;;;;22.44;62.09;101262.94;5119414;27;46067;-82
2022/05/18 01:14:30;;;;;;;;;8.25;7.50;;;;;22.66;62.46;101292.28;5129553;27;45208;-82
2022/05/18 01:16:56;;;;;;;;;7.00;6.00;;;;;22.61;63.05;101285.16;5130266;27;45142;-82
2022/05/18 01:19:40;;;;;;;;;6.50;6.50;;;;;22.65;62.75;101293.16;5111850;27;45250;-82
2022/05/18 01:22:44;;;;;;;;;7.75;7.75;;;;;22.37;62.91;101254.06;5129287;27;45793;-82
2022/05/18 01:25:24;;;;;;;;;8.00;8.00;;;;;22.58;63.18;101295.91;5130296;27;45430;-82
2022/05/18 01:27:50;;;;;;;;;6.25;6.00;;;;;22.43;62.47;101283.50;5130938;27;45327;-82
2022/05/18 01:30:16;;;;;;;;;7.75;7.75;;;;;22.40;62.83;101278.13;5129580;27;45061;-82
2022/05/18 01:32:48;;;;;;;;;6.50;6.50;;;;;22.42;63.01;101287.06;5111097;27;47692;-82
2022/05/18 01:35:17;;;;;;;;;7.00;7.00;;;;;22.53;63.02;101308.44;5130156;27;45309;-83
2022/05/18 01:37:43;;;;;;;;;6.75;6.50;;;;;22.39;63.24;101293.31;5129685;27;45380;-83
2022/05/18 01:40:19;;;;;;;;;7.00;7.00;;;;;22.19;62.88;101259.50;5130241;27;44951;-82
2022/05/18 01:43:10;;;;;;;;;7.00;7.00;;;;;22.48;62.64;101304.91;5130508;27;46323;-82
2022/05/18 01:45:35;;;;;;;;;7.00;7.00;;;;;22.25;62.44;101262.16;5129940;27;45097;-83
2022/05/18 01:48:15;;;;;;;;;10.00;7.75;;;;;22.30;62.61;101273.72;5130073;27;45067;-82
2022/05/18 01:50:42;;;;;;;;;8.25;7.75;;;;;22.15;62.31;101248.81;5130481;27;45448;-82
2022/05/18 01:53:08;;;;;;;;;8.75;8.00;;;;;22.27;62.28;101271.97;5115704;27;45924;-82
2022/05/18 01:55:34;;;;;;;;;7.50;7.00;;;;;22.45;62.43;101294.19;5109220;27;45118;-82
2022/05/18 01:57:59;;;;;;;;;8.00;8.00;;;;;22.28;62.67;101279.09;5087777;27;45130;-83
2022/05/18 02:00:25;;;;;;;;;8.00;8.00;;;;;22.23;62.61;101272.00;5108079;27;45015;-83
2022/05/18 02:02:51;;;;;;;;;4.00;3.25;;;;;22.21;62.82;101271.09;5109245;27;45874;-83
2022/05/18 02:05:16;;;;;;;;;8.00;8.00;;;;;22.13;62.60;101257.75;5108949;27;44936;-82
2022/05/18 02:07:41;;;;;;;;;8.75;8.75;;;;;22.13;62.87;101269.34;5108878;27;45362;-83
2022/05/18 02:10:08;;;;;;;;;8.00;7.25;;;;;22.23;62.91;101291.63;5110901;27;45001;-83
2022/05/18 02:12:34;;;;;;;;;9.00;9.00;;;;;22.35;63.13;101322.81;5132324;27;46161;-82
2022/05/18 02:14:59;;;;;;;;;8.50;8.50;;;;;22.02;62.84;101275.59;5133088;27;45027;-83
2022/05/18 02:17:25;;;;;;;;;8.75;8.25;;;;;22.24;62.82;101320.19;5131758;27;45050;-84
2022/05/18 02:19:51;;;;;;;;;9.00;9.00;;;;;22.01;62.97;101292.56;5131690;27;45505;-82
2022/05/18 02:22:17;;;;;;;;;7.75;7.75;;;;;22.23;63.52;101342.50;5132638;27;45462;-83
2022/05/18 02:24:42;;;;;;;;;8.00;7.75;;;;;22.07;63.35;101314.88;5133877;27;45326;-83
2022/05/18 02:27:07;;;;;;;;;10.25;10.25;;;;;22.04;63.72;101330.94;5110779;27;45241;-83
2022/05/18 02:29:34;;;;;;;;;7.00;6.25;;;;;21.94;63.86;101313.13;5115898;27;45074;-82
2022/05/18 02:32:00;;;;;;;;;8.25;8.25;;;;;21.95;63.24;101322.03;5109671;27;45225;-82
2022/05/18 02:34:25;;;;;;;;;7.00;7.00;;;;;21.76;63.67;101297.09;5093496;27;45199;-82
2022/05/18 02:36:51;;;;;;;;;7.25;7.25;;;;;21.79;63.86;101308.69;5112695;27;44914;-82
2022/05/18 02:39:20;;;;;;;;;7.00;7.00;;;;;21.90;63.38;101343.47;5112086;27;44958;-83
2022/05/18 02:41:46;;;;;;;;;5.75;5.25;;;;;21.68;63.39;101315.88;5110987;27;45441;-83
2022/05/18 02:44:11;;;;;;;;;6.00;5.75;;;;;21.77;63.55;101337.25;5111561;27;45178;-83
2022/05/18 02:46:37;;;;;;;;;7.00;6.00;;;;;21.69;63.61;101330.13;5111647;27;45084;-83
2022/05/18 02:49:02;;;;;;;;;7.75;7.00;;;;;21.72;63.60;101338.13;5109971;27;45452;-82
2022/05/18 02:51:28;;;;;;;;;6.75;6.75;;;;;21.39;63.45;101297.19;5111479;27;45268;-82
2022/05/18 02:53:53;;;;;;;;;4.00;4.00;;;;;21.79;63.74;101374.72;5109152;27;45467;-82
2022/05/18 02:56:26;;;;;;;;;4.50;4.50;;;;;21.58;63.84;101340.84;5110392;27;45245;-83
2022/05/18 02:58:54;;;;;;;;;4.75;4.50;;;;;21.42;63.77;101329.25;5111604;27;45238;-83
2022/05/18 03:01:22;;;;;;;;;4.50;4.00;;;;;21.66;63.25;101381.84;5111267;27;47130;-82
2022/05/18 03:03:48;;;;;;;;;5.25;4.50;;;;;21.40;63.43;101336.41;5112387;27;45575;-82
2022/05/18 03:06:16;;;;;;;;;5.00;5.00;;;;;21.55;63.31;101372.94;5093085;27;45218;-83
2022/05/18 03:08:43;;;;;;;;;5.50;4.50;;;;;21.51;63.79;101360.47;5093323;27;45387;-83
2022/05/18 03:11:09;;;;;;;;;5.00;5.00;;;;;21.44;63.46;101364.94;5110407;27;45318;-83
2022/05/18 03:13:35;;;;;;;;;4.75;3.00;;;;;21.41;63.65;101358.69;5108373;27;45101;-82
2022/05/18 03:16:01;;;;;;;;;4.75;4.00;;;;;21.19;63.47;101342.63;5118468;27;45119;-83
2022/05/18 03:18:26;;;;;;;;;4.75;3.75;;;;;21.11;63.54;101331.00;5114669;27;45434;-82
2022/05/18 03:23:37;;;;;;;;;2.75;2.75;;;;;21.18;63.75;101353.28;5110754;27;45140;-82
2022/05/18 03:26:10;;;;;;;;;5.00;5.00;;;;;21.03;63.49;101347.06;5093261;27;45043;-83
2022/05/18 03:28:37;;;;;;;;;6.00;4.25;;;;;20.87;63.89;101329.19;5111012;27;45172;-83
2022/05/18 03:31:04;;;;;;;;;3.75;3.75;;;;;20.86;63.85;101344.34;5109808;27;45232;-83
2022/05/18 03:33:29;;;;;;;;;3.00;3.00;;;;;20.86;64.32;101354.13;5111381;27;45574;-82
2022/05/18 03:35:55;;;;;;;;;4.00;4.00;;;;;20.39;63.96;101273.84;5092976;27;45014;-82
2022/05/18 03:38:21;;;;;;;;;4.50;3.75;;;;;21.10;63.69;101402.31;5092488;27;45250;-82
2022/05/18 03:40:47;;;;;;;;;5.75;4.00;;;;;21.09;63.68;101408.53;5111829;27;45895;-82
2022/05/18 03:43:12;;;;;;;;;4.50;4.25;;;;;21.04;63.72;101415.66;5110789;27;45095;-83
2022/05/18 03:45:39;;;;;;;;;4.00;4.00;;;;;21.01;63.78;101412.97;5110912;27;45277;-83
2022/05/18 03:48:06;;;;;;;;;4.00;3.00;;;;;20.89;63.42;101402.25;5111248;27;44941;-83
2022/05/18 03:50:32;;;;;;;;;5.00;4.50;;;;;20.67;63.38;101387.94;5108930;27;47476;-83
2022/05/18 03:52:58;;;;;;;;;4.75;4.00;;;;;20.89;63.54;101433.44;5092738;27;45034;-83
2022/05/18 03:55:25;;;;;;;;;3.25;3.00;;;;;20.65;63.89;101395.06;5111463;27;45292;-83
2022/05/18 03:57:51;;;;;;;;;3.00;2.00;;;;;20.57;63.57;101388.78;5092912;27;45141;-83
2022/05/18 04:00:17;;;;;;;;;3.25;3.25;;;;;20.48;63.63;101383.41;5111261;27;45238;-82
2022/05/18 04:02:43;;;;;;;;;1.00;1.00;;;;;20.79;62.89;101448.53;5121031;27;45598;-82
2022/05/18 04:05:11;;;;;;;;;3.00;2.00;;;;;20.36;62.28;101376.22;5131232;27;45059;-82
2022/05/18 04:07:36;;;;;;;;;2.00;2.00;;;;;20.34;61.97;101386.88;5131787;27;45201;-83
2022/05/18 04:10:04;;;;;;;;;1.75;1.75;;;;;20.62;61.76;101445.78;5129163;27;46134;-82
2022/05/18 04:12:29;;;;;;;;;1.75;1.75;;;;;20.40;61.82;101418.06;5110671;27;45563;-83
2022/05/18 04:14:55;;;;;;;;;1.00;1.00;;;;;20.49;61.71;101444.84;5110919;27;45269;-82
2022/05/18 04:17:21;;;;;;;;;1.75;1.75;;;;;20.53;61.47;101459.97;5110006;27;45015;-83
2022/05/18 04:19:47;;;;;;;;;2.25;1.75;;;;;20.36;61.56;101432.28;5108813;27;45568;-81
2022/05/18 04:22:12;;;;;;;;;2.00;1.00;;;;;20.09;61.22;101393.84;5110525;27;45103;-82
2022/05/18 04:24:38;;;;;;;;;1.25;1.25;;;;;20.12;61.24;101411.66;5111024;27;44952;-82
2022/05/18 04:27:06;;;;;;;;;2.00;2.00;;;;;20.33;61.34;101438.47;5110636;27;44955;-82
2022/05/18 04:29:31;;;;;;;;;2.00;2.00;;;;;20.12;61.31;101402.78;5110149;27;45424;-82
2022/05/18 04:31:57;;;;;;;;;2.00;1.00;;;;;20.17;60.98;101423.25;5110462;27;45149;-82
2022/05/18 04:34:22;;;;;;;;;2.75;2.00;;;;;20.33;60.67;101448.25;5111071;27;45084;-82
2022/05/18 04:36:47;;;;;;;;;2.00;2.00;;;;;20.13;61.01;101428.56;5117502;27;45267;-82
2022/05/18 04:39:12;;;;;;;;;0.75;0.75;;;;;20.00;60.72;101400.91;5122112;27;45823;-82
2022/05/18 04:41:38;;;;;;;;;1.25;1.25;;;;;20.08;60.97;101428.53;5120096;27;44988;-82
2022/05/18 04:44:03;;;;;;;;;1.00;1.00;;;;;20.19;60.96;101442.84;5124240;27;45125;-82
2022/05/18 04:46:29;;;;;;;;;1.25;1.00;;;;;20.26;60.71;101454.47;5089326;27;45410;-82
2022/05/18 04:48:54;;;;;;;;;1.25;1.25;;;;;20.13;60.42;101428.56;5107310;27;46000;-82
2022/05/18 04:51:19;;;;;;;;;1.25;1.25;;;;;19.92;60.82;101395.53;5126389;27;44950;-83
2022/05/18 04:53:45;;;;;;;;;1.00;1.00;;;;;20.10;60.55;101432.13;5129129;27;45406;-83
2022/05/18 04:56:10;;;;;;;;;1.00;1.00;;;;;20.00;60.24;101425.84;5129394;27;45354;-83
2022/05/18 04:58:35;;;;;;;;;2.00;2.00;;;;;20.12;60.07;101456.16;5128686;27;45728;-83
2022/05/18 05:01:06;;;;;;;;;1.00;1.00;;;;;20.12;59.75;101458.81;5128981;27;45340;-83
2022/05/18 05:03:32;;;;;;;;;1.00;1.00;;;;;19.98;59.99;101435.59;5101004;27;45323;-83
2022/05/18 05:05:57;;;;;;;;;1.00;1.00;;;;;20.00;60.04;101441.84;5129684;27;45101;-83
2022/05/18 05:08:23;;;;;;;;;2.00;2.00;;;;;20.27;59.97;101496.28;5130061;27;45165;-82
2022/05/18 05:10:48;;;;;;;;;2.00;1.00;;;;;20.27;59.87;101480.28;5103831;27;45147;-83
2022/05/18 05:13:13;;;;;;;;;1.00;1.00;;;;;20.35;60.38;101502.59;5109952;27;45291;-81
2022/05/18 05:15:39;;;;;;;;;1.00;1.00;;;;;20.17;59.85;101465.97;5091743;27;46096;-82
2022/05/18 05:18:04;;;;;;;;;1.00;1.00;;;;;20.23;59.97;101479.34;5126086;27;45868;-82
2022/05/18 05:20:30;;;;;;;;;1.50;1.50;;;;;20.22;59.83;101466.88;5127687;27;45520;-81
2022/05/18 05:22:55;;;;;;;;;2.00;2.00;;;;;20.22;60.28;101472.22;5108685;27;45398;-83
2022/05/18 05:25:21;;;;;;;;;1.00;1.00;;;;;20.01;60.21;101440.06;5128415;27;45101;-83
2022/05/18 05:27:46;;;;;;;;;2.00;2.00;;;;;20.32;59.54;101497.22;5129980;27;45444;-83
2022/05/18 05:30:13;;;;;;;;;1.25;1.25;;;;;20.43;59.70;101513.28;5110571;27;45180;-83
2022/05/18 05:32:39;;;;;;;;;2.00;2.00;;;;;20.17;59.65;101476.66;5111053;27;45361;-83
2022/05/18 05:35:07;;;;;;;;;1.00;1.00;;;;;20.33;59.64;101507.88;5110308;27;45190;-83
2022/05/18 05:37:32;;;;;;;;;1.00;1.00;;;;;20.09;59.46;101476.56;5127996;27;45472;-83
2022/05/18 05:39:58;;;;;;;;;1.00;1.00;;;;;20.09;59.83;101475.69;5128575;27;45126;-83
2022/05/18 05:42:24;;;;;;;;;1.50;1.50;;;;;20.10;59.55;101485.50;5128744;27;44969;-83
2022/05/18 05:44:49;;;;;;;;;1.00;1.00;;;;;20.19;59.52;101490.00;5110156;27;45133;-83
2022/05/18 05:47:16;;;;;;;;;1.00;1.00;;;;;20.47;59.56;101533.84;5127732;27;45709;-83
2022/05/18 05:49:42;;;;;;;;;1.75;1.75;;;;;20.32;59.54;101510.56;5129530;27;45219;-84
2022/05/18 05:52:08;;;;;;;;;3.00;2.00;;;;;20.49;59.28;101541.00;5130094;27;45575;-83
2022/05/18 05:54:34;;;;;;;;;1.00;1.00;;;;;20.52;59.43;101550.78;5123929;27;45182;-83
2022/05/18 05:57:03;;;;;;;;;1.75;1.75;;;;;20.32;59.37;101521.25;5108438;27;47178;-83
2022/05/18 05:59:29;;;;;;;;;1.00;1.00;;;;;20.14;59.50;101481.06;5099987;27;45189;-83
2022/05/18 06:01:58;;;;;;;;;1.00;1.00;;;;;20.22;59.19;101487.34;5129898;27;45101;-83
2022/05/18 06:04:24;;;;;;;;;2.00;2.00;;;;;20.47;59.15;101547.19;5110595;27;45315;-83
2022/05/18 06:06:49;;;;;;;;;1.25;1.00;;;;;20.31;59.12;101511.44;5111355;27;47403;-83
2022/05/18 06:09:14;;;;;;;;;2.00;1.25;;;;;20.40;59.42;101513.28;5110463;27;45028;-83
2022/05/18 06:11:40;;;;;;;;;1.00;1.00;;;;;20.61;59.49;101545.50;5123751;27;45101;-83
2022/05/18 06:14:05;;;;;;;;;1.75;1.75;;;;;20.64;59.07;101541.94;5129060;27;45118;-83
2022/05/18 06:16:31;;;;;;;;;1.00;1.00;;;;;20.64;59.27;101534.84;5110091;27;47756;-83
2022/05/18 06:18:56;;;;;;;;;3.00;3.00;;;;;20.47;59.36;101505.34;5110674;27;45144;-83
2022/05/18 06:21:21;;;;;;;;;2.50;2.00;;;;;20.52;59.19;101500.94;5129504;27;45288;-83
2022/05/18 06:23:46;;;;;;;;;2.50;2.50;;;;;20.82;59.13;101550.97;5107224;27;45071;-83
2022/05/18 06:26:12;;;;;;;;;2.50;2.50;;;;;20.84;58.64;101553.66;5089706;27;47185;-83
2022/05/18 06:28:37;;;;;;;;;2.00;2.00;;;;;20.90;58.38;101556.34;5090007;27;45273;-82
2022/05/18 06:31:06;;;;;;;;;1.25;1.25;;;;;20.91;57.96;101559.91;5108798;27;45196;-83
2022/05/18 06:33:32;;;;;;;;;2.00;2.00;;;;;20.74;58.21;101531.34;5111558;27;45055;-82
2022/05/18 06:35:57;;;;;;;;;1.00;1.00;;;;;20.59;58.18;101491.16;5115579;27;45462;-83
2022/05/18 06:38:23;;;;;;;;;2.00;2.00;;;;;20.74;58.73;101509.97;5089509;27;45419;-83
2022/05/18 06:43:32;;;;;;;;;2.00;2.00;;;;;20.85;58.27;101521.59;5089659;27;45558;-83
2022/05/18 06:46:00;;;;;;;;;2.50;2.50;;;;;20.76;58.39;101499.28;5070856;27;47821;-83
2022/05/18 06:48:25;;;;;;;;;2.75;2.00;;;;;20.83;58.14;101509.97;5088733;27;45416;-83
2022/05/18 06:50:51;;;;;;;;;3.00;3.00;;;;;20.86;58.26;101501.09;5090447;27;45553;-83
2022/05/18 06:53:16;;;;;;;;;2.00;2.00;;;;;21.17;58.22;101549.34;5089387;27;45528;-82
2022/05/18 06:55:41;;;;;;;;;2.50;2.50;;;;;20.97;57.66;101491.34;5089436;27;46097;-83
2022/05/18 06:58:07;;;;;;;;;2.00;2.00;;;;;21.25;57.76;101547.59;5071435;27;45595;-83
2022/05/18 07:00:32;;;;;;;;;2.25;2.25;;;;;21.35;57.96;101542.31;5073988;27;45474;-83
2022/05/18 07:02:58;;;;;;;;;3.25;2.50;;;;;21.09;57.66;101499.44;5092835;27;45592;-83
2022/05/18 07:05:24;;;;;;;;;2.50;2.50;;;;;21.13;57.79;101498.56;5092405;27;45654;-83
2022/05/18 07:07:50;;;;;;;;;1.25;1.00;;;;;21.07;57.15;101487.81;5093061;27;45413;-83
2022/05/18 07:10:15;;;;;;;;;2.75;2.00;;;;;21.16;57.41;101488.75;5073801;27;45646;-84
2022/05/18 07:12:40;;;;;;;;;2.25;2.00;;;;;21.28;57.14;101502.13;5074591;27;45577;-83
2022/05/18 07:15:07;;;;;;;;;2.00;2.00;;;;;21.17;56.84;101478.03;5092633;27;46192;-83
2022/05/18 07:17:33;;;;;;;;;4.25;4.25;;;;;21.53;57.19;101538.81;5073776;27;45987;-83
2022/05/18 07:19:59;;;;;;;;;2.00;2.00;;;;;21.46;57.01;101514.69;5093253;27;45501;-83
2022/05/18 07:22:24;;;;;;;;;2.75;2.75;;;;;21.14;57.03;101454.00;5092408;27;45588;-83
2022/05/18 07:24:50;;;;;;;;;2.00;2.00;;;;;21.60;56.50;101523.66;5092437;27;45521;-83
2022/05/18 07:27:16;;;;;;;;;2.00;1.75;;;;;21.32;56.98;101471.88;5092042;27;45465;-82
2022/05/18 07:29:41;;;;;;;;;1.25;1.25;;;;;21.60;56.48;101516.50;5092441;27;45441;-83
2022/05/18 07:32:12;;;;;;;;;2.75;2.75;;;;;21.47;56.50;101479.91;5091528;27;45497;-83
2022/05/18 07:34:38;;;;;;;;;2.00;2.00;;;;;21.68;56.16;101518.31;5073663;27;47470;-83
2022/05/18 07:37:05;;;;;;;;;3.50;3.00;;;;;21.64;55.97;101512.06;5073776;27;46109;-83
2022/05/18 07:39:31;;;;;;;;;3.25;2.25;;;;;21.72;56.35;101514.72;5091703;27;45455;-82
2022/05/18 07:41:58;;;;;;;;;2.00;2.00;;;;;21.55;55.69;101486.19;5092576;27;45355;-83
2022/05/18 07:44:23;;;;;;;;;2.25;1.75;;;;;21.62;55.97;101489.75;5091795;27;45507;-82
2022/05/18 07:46:49;;;;;;;;;2.00;2.00;;;;;21.98;55.88;101555.81;5073243;27;45628;-83
2022/05/18 07:49:14;;;;;;;;;2.00;2.00;;;;;21.84;55.77;101521.00;5073405;27;45694;-83
2022/05/18 07:51:40;;;;;;;;;2.25;2.00;;;;;21.74;55.37;101496.91;5092410;27;45807;-83
2022/05/18 07:54:06;;;;;;;;;2.25;2.00;;;;;22.09;55.72;101548.66;5091381;27;45402;-83
2022/05/18 07:56:34;;;;;;;;;2.00;1.75;;;;;22.09;55.50;101537.06;5091936;27;45541;-83
2022/05/18 07:59:00;;;;;;;;;2.25;2.25;;;;;22.00;54.76;101515.66;5073957;27;45431;-84
2022/05/18 08:01:25;;;;;;;;;1.00;1.00;;;;;21.87;55.00;101494.25;5091016;27;45818;-83
2022/05/18 08:03:51;;;;;;;;;2.25;2.25;;;;;22.24;55.13;101544.25;5073589;27;47205;-83
2022/05/18 08:06:17;;;;;;;;;3.50;2.50;;;;;22.06;55.19;101507.59;5073015;27;45411;-83
2022/05/18 08:08:42;;;;;;;;;3.25;2.50;;;;;22.19;54.78;101519.25;5072857;27;45366;-83
2022/05/18 08:16:47;;;;;;;;;2.00;2.00;;;;;22.31;54.57;101493.31;5091164;27;45862;-84
2022/05/18 08:19:13;;;;;;;;;3.00;3.00;;;;;22.38;54.89;101505.84;5073312;27;45374;-83
2022/05/18 08:21:38;;;;;;;;;3.00;3.00;;;;;22.63;54.36;101536.13;5091675;27;45663;-83
2022/05/18 08:24:06;;;;;;;;;2.00;2.00;;;;;22.78;54.46;101548.59;5072488;27;48049;-83
2022/05/18 08:26:32;;;;;;;;;1.00;1.00;;;;;22.67;53.81;101512.91;5091448;27;45809;-83
2022/05/18 08:28:58;;;;;;;;;4.25;2.00;;;;;22.87;53.92;101536.97;5091878;27;45481;-83
2022/05/18 08:31:24;;;;;;;;;2.50;2.00;;;;;22.91;53.84;101530.75;5090601;27;45340;-83
2022/05/18 08:33:50;;;;;;;;;3.00;3.00;;;;;22.62;53.49;101477.19;5091468;27;46074;-83
2022/05/18 08:36:18;;;;;;;;;3.00;3.00;;;;;23.03;53.55;101527.09;5091093;27;45483;-83
2022/05/18 08:38:44;;;;;;;;;4.00;4.00;;;;;22.99;53.57;101518.19;5091320;27;45694;-83
2022/05/18 08:41:18;;;;;;;;;2.00;2.00;;;;;22.90;53.92;101504.81;5072777;27;45668;-83
2022/05/18 08:43:47;;;;;;;;;3.75;3.00;;;;;23.09;54.04;101536.00;5091383;27;45500;-83
2022/05/18 08:46:45;;;;;;;;;2.00;2.00;;;;;23.13;54.12;101526.16;5090029;27;45367;-84
2022/05/18 08:49:35;;;;;;;;;5.25;5.25;;;;;23.24;53.49;101536.84;5072542;27;45558;-83
2022/05/18 08:52:03;;;;;;;;;4.00;4.00;;;;;23.30;53.67;101535.03;5091494;27;45411;-83
2022/05/18 08:54:57;;;;;;;;;5.00;4.75;;;;;23.38;53.85;101524.25;5090432;27;45696;-83
2022/05/18 08:57:28;;;;;;;;;4.00;4.00;;;;;23.35;53.59;101501.03;5090522;27;45970;-83
2022/05/18 08:59:58;;;;;;;;;3.00;3.00;;;;;23.42;53.30;101501.88;5072254;27;45430;-83
2022/05/18 09:02:32;;;;;;;;;7.25;6.00;;;;;23.38;53.06;101494.75;5072221;27;45477;-83
2022/05/18 09:05:04;;;;;;;;;3.00;2.00;;;;;23.52;53.31;101503.59;5091135;27;46598;-83
2022/05/18 09:07:43;;;;;;;;;4.75;4.00;;;;;23.57;53.03;101503.56;5090302;27;45323;-83
2022/05/18 09:10:23;;;;;;;;;3.00;3.00;;;;;23.45;53.13;101477.72;5074504;27;45505;-83
2022/05/18 09:12:52;;;;;;;;;3.50;3.00;;;;;23.39;53.30;101464.31;5112105;27;45768;-83
2022/05/18 09:15:34;;;;;;;;;3.00;3.00;;;;;23.54;53.30;101493.72;5110178;27;45824;-83
2022/05/18 09:18:12;;;;;;;;;4.00;3.00;;;;;23.29;53.54;101442.03;5092760;27;45522;-83
2022/05/18 09:20:43;;;;;;;;;3.25;3.00;;;;;23.72;53.60;101516.91;5110979;27;45340;-83
2022/05/18 09:23:11;;;;;;;;;3.00;3.00;;;;;23.74;53.65;101503.47;5092091;27;45316;-82
2022/05/18 09:25:58;;;;;;;;;4.00;3.75;;;;;23.74;53.30;101508.84;5092679;27;48258;-83
2022/05/18 09:28:52;;;;;;;;;3.25;3.00;;;;;23.37;53.25;101448.25;5092300;27;46214;-84
2022/05/18 09:31:46;;;;;;;;;3.00;3.00;;;;;23.75;53.11;101499.91;5110261;27;45286;-83
2022/05/18 09:34:14;;;;;;;;;3.25;3.25;;;;;23.77;53.17;101500.75;5092154;27;45540;-84
2022/05/18 09:36:50;;;;;;;;;3.75;3.00;;;;;23.80;53.44;101508.81;5110923;27;46324;-83
2022/05/18 09:39:19;;;;;;;;;5.50;5.50;;;;;23.61;53.35;101468.66;5110772;27;45871;-84
2022/05/18 09:41:50;;;;;;;;;4.00;4.00;;;;;23.68;53.00;101470.41;5111482;27;45707;-83
2022/05/18 09:44:18;;;;;;;;;5.25;5.00;;;;;23.93;53.33;101503.31;5110415;27;45579;-83
2022/05/18 09:46:45;;;;;;;;;4.00;3.50;;;;;23.86;53.30;101490.84;5091534;27;47038;-83
2022/05/18 09:49:29;;;;;;;;;4.00;4.00;;;;;23.67;53.24;101447.16;5111051;27;45692;-83
2022/05/18 09:51:58;;;;;;;;;4.00;3.75;;;;;23.72;53.03;101447.13;5110893;27;45491;-83
2022/05/18 09:54:24;;;;;;;;;5.50;5.00;;;;;24.14;53.26;101496.88;5092180;27;45615;-83
2022/05/18 09:57:06;;;;;;;;;4.25;3.25;;;;;23.98;53.33;101444.19;5110995;27;45733;-83
2022/05/18 09:59:50;;;;;;;;;3.25;3.00;;;;;24.09;53.58;101438.75;5109883;27;45576;-83
2022/05/18 10:07:52;;;;;;;;;4.25;3.25;;;;;24.68;51.68;101464.09;5110528;27;45535;-83
2022/05/18 10:10:44;;;;;;;;;3.00;3.00;;;;;24.80;52.22;101461.22;5088095;27;45502;-83
2022/05/18 10:13:16;;;;;;;;;4.00;4.00;;;;;24.53;51.95;101414.09;5086512;27;45724;-83
2022/05/18 10:15:46;;;;;;;;;2.75;2.50;;;;;24.86;51.62;101469.22;5089109;27;45475;-83
2022/05/18 10:18:14;;;;;;;;;3.00;3.00;;;;;24.92;52.31;101458.38;5071053;27;47241;-83
2022/05/18 10:20:40;;;;;;;;;4.00;3.25;;;;;25.00;52.00;101452.91;5089922;27;45454;-84
2022/05/18 10:23:28;;;;;;;;;4.00;4.00;;;;;25.14;51.41;101448.25;5089588;27;45484;-83
2022/05/18 10:25:54;;;;;;;;;3.50;3.50;;;;;25.11;50.91;101429.44;5071619;27;45611;-83
2022/05/18 10:28:22;;;;;;;;;4.50;3.75;;;;;25.28;51.01;101460.63;5089284;27;45918;-83
2022/05/18 10:30:54;;;;;;;;;3.25;3.25;;;;;25.31;50.91;101457.88;5089214;27;45921;-83
2022/05/18 10:33:23;;;;;;;;;3.50;3.25;;;;;25.08;51.02;101404.41;5091659;27;45943;-83
2022/05/18 10:35:49;;;;;;;;;5.00;3.75;;;;;25.28;50.50;101429.22;5093713;27;45232;-83
2022/05/18 10:38:27;;;;;;;;;3.00;3.00;;;;;25.33;51.00;101427.34;5074140;27;46488;-83
2022/05/18 10:41:04;;;;;;;;;4.00;4.00;;;;;25.47;50.29;101440.59;5075101;27;45841;-83
2022/05/18 10:43:35;;;;;;;;;4.00;3.50;;;;;25.42;50.07;101421.81;5074552;27;45363;-83
2022/05/18 10:46:09;;;;;;;;;3.50;3.50;;;;;25.47;48.92;101432.53;5093122;27;45514;-83
2022/05/18 10:48:35;;;;;;;;;4.00;3.25;;;;;25.21;49.41;101385.34;5092629;27;45455;-83
2022/05/18 10:51:08;;;;;;;;;3.00;2.00;;;;;25.36;49.11;101397.69;5092715;27;45794;-83
2022/05/18 10:53:46;;;;;;;;;3.00;3.00;;;;;25.56;48.64;101423.38;5093133;27;45357;-84
2022/05/18 10:56:29;;;;;;;;;3.00;3.00;;;;;25.64;48.92;101413.38;5093236;27;45466;-84
2022/05/18 10:59:10;;;;;;;;;4.50;4.00;;;;;25.85;48.95;101423.81;5074617;27;47456;-84
2022/05/18 11:01:44;;;;;;;;;3.00;3.00;;;;;25.79;48.85;101398.78;5074007;27;45885;-84
2022/05/18 11:04:24;;;;;;;;;3.00;3.00;;;;;25.94;48.61;101409.28;5093009;27;45512;-83
2022/05/18 11:06:49;;;;;;;;;3.50;3.50;;;;;25.84;48.17;101381.63;5074146;27;45681;-84
2022/05/18 11:09:31;;;;;;;;;3.75;3.00;;;;;26.03;47.33;101408.25;5092610;27;46276;-84
2022/05/18 11:12:17;;;;;;;;;4.00;3.00;;;;;26.19;48.18;101425.88;5091751;27;45970;-84
2022/05/18 11:14:56;;;;;;;;;3.00;3.00;;;;;26.31;47.87;101414.00;5094193;27;45372;-84
2022/05/18 11:17:59;;;;;;;;;3.00;3.00;;;;;26.39;46.88;101414.72;5112922;27;45653;-83
2022/05/18 11:20:36;;;;;;;;;3.25;3.25;;;;;26.47;46.53;101420.88;5112922;27;45627;-84
2022/05/18 11:23:19;;;;;;;;;5.00;5.00;;;;;26.52;46.20;101412.69;5113401;27;45523;-83
2022/05/18 11:26:22;;;;;;;;;3.00;3.00;;;;;26.56;46.53;101412.59;5113653;27;45499;-84
2022/05/18 11:29:25;;;;;;;;;4.25;3.75;;;;;26.61;46.36;101409.81;5094395;27;45734;-84
2022/05/18 11:31:59;;;;;;;;;3.75;3.00;;;;;26.70;46.33;101409.63;5113007;27;45520;-84
2022/05/18 11:34:52;;;;;;;;;3.00;3.00;;;;;26.77;45.38;101408.56;5112904;27;45372;-84
2022/05/18 11:37:26;;;;;;;;;3.00;2.75;;;;;26.83;45.67;101408.41;5112577;27;45612;-84
2022/05/18 11:40:17;;;;;;;;;5.00;3.25;;;;;26.91;45.74;101405.56;5113778;27;45448;-85
2022/05/18 11:43:25;;;;;;;;;2.00;2.00;;;;;26.95;46.07;101397.34;5112647;27;46067;-84
2022/05/18 11:46:30;;;;;;;;;4.00;4.00;;;;;27.00;45.89;101397.25;5112046;27;45847;-84
2022/05/18 11:49:17;;;;;;;;;4.00;4.00;;;;;27.05;45.07;101387.25;5055555;27;45445;-84
2022/05/18 11:52:01;;;;;;;;;3.50;3.50;;;;;27.11;45.61;101386.25;5093997;27;45566;-84
2022/05/18 11:54:38;;;;;;;;;4.00;4.00;;;;;27.20;45.15;101394.13;5112460;27;45469;-84